Time;durP1;ratioP1;P1;durP2;ratioP2;P2;SDS_P1;SDS_P2;PMS_P1;PMS_P2;Temp;Humidity;BMP_temperature;BMP_pressure;BME280_temperature;BME280_humidity;BME280_pressure;Samples;Min_cycle;Max_cycle;Signal;HPM_P1;HPM_P2
2023/08/02 00:01:12;;;;;;;6.57;2.80;;;16.20;99.90;;;;;;5045610;22;20045;-69
2023/08/02 00:03:37;;;;;;;8.30;2.95;;;16.20;99.90;;;;;;5023500;28;20034;-68
2023/08/02 00:06:03;;;;;;;7.22;3.17;;;16.20;99.90;;;;;;5031363;28;20033;-69
2023/08/02 00:08:29;;;;;;;8.57;2.97;;;16.20;99.90;;;;;;5028153;28;20045;-69
2023/08/02 00:10:55;;;;;;;7.15;2.92;;;16.20;99.90;;;;;;5019648;28;20045;-69
2023/08/02 00:13:21;;;;;;;7.53;3.03;;;16.20;99.90;;;;;;5008925;28;20038;-69
2023/08/02 00:15:47;;;;;;;8.18;3.58;;;16.20;99.90;;;;;;5003797;28;20072;-69
2023/08/02 00:18:13;;;;;;;11.63;3.55;;;16.20;99.90;;;;;;5007645;28;20034;-69
2023/08/02 00:20:39;;;;;;;6.32;2.85;;;16.20;99.90;;;;;;5007598;28;20042;-69
2023/08/02 00:23:06;;;;;;;5.75;2.90;;;16.10;99.90;;;;;;5001663;28;20056;-69
2023/08/02 00:25:32;;;;;;;9.57;2.85;;;16.20;99.90;;;;;;5012918;28;20037;-69
2023/08/02 00:27:58;;;;;;;10.07;3.00;;;16.20;99.90;;;;;;5013874;28;20072;-68
2023/08/02 00:30:24;;;;;;;10.25;3.53;;;16.20;99.90;;;;;;5012470;28;20089;-68
2023/08/02 00:32:50;;;;;;;8.57;3.00;;;16.10;99.90;;;;;;5013553;28;20121;-69
2023/08/02 00:35:16;;;;;;;7.75;3.08;;;16.10;99.90;;;;;;5014637;28;20029;-69
2023/08/02 00:37:43;;;;;;;7.25;3.47;;;16.10;99.90;;;;;;5014584;28;20164;-69
2023/08/02 00:40:09;;;;;;;9.35;3.38;;;16.10;99.90;;;;;;5013633;28;20515;-69
2023/08/02 00:42:35;;;;;;;11.93;3.78;;;16.10;99.90;;;;;;5013457;28;20083;-69
2023/08/02 00:45:01;;;;;;;10.45;4.00;;;16.00;99.90;;;;;;5010238;28;20528;-69
2023/08/02 00:47:27;;;;;;;6.40;3.30;;;16.10;99.90;;;;;;5006775;28;20045;-69
2023/08/02 00:49:53;;;;;;;10.10;3.83;;;16.10;99.90;;;;;;5006808;28;20436;-69
2023/08/02 00:52:19;;;;;;;10.02;3.55;;;16.10;99.90;;;;;;5008911;28;20400;-68
2023/08/02 00:54:45;;;;;;;9.27;3.38;;;16.10;99.90;;;;;;5008800;28;20045;-69
2023/08/02 00:57:11;;;;;;;7.57;3.58;;;16.10;99.90;;;;;;5007569;28;20456;-69
2023/08/02 00:59:38;;;;;;;8.20;3.83;;;16.10;99.90;;;;;;5012083;28;20120;-69
2023/08/02 01:02:06;;;;;;;11.77;4.05;;;16.10;99.90;;;;;;5008112;28;20038;-69
2023/08/02 01:04:35;;;;;;;14.10;4.00;;;16.10;99.90;;;;;;5011835;28;20044;-69
2023/08/02 01:07:19;;;;;;;10.82;3.50;;;16.10;99.90;;;;;;5008667;28;20508;-68
2023/08/02 01:10:10;;;;;;;11.60;3.85;;;16.10;99.90;;;;;;5010733;28;20064;-69
2023/08/02 01:12:39;;;;;;;;;;;16.10;99.90;;;;;;5001759;28;20053;-69
2023/08/02 01:15:06;;;;;;;13.00;3.92;;;16.10;99.90;;;;;;5013969;28;19928;-69
2023/08/02 01:17:32;;;;;;;10.88;4.28;;;16.10;99.90;;;;;;5011373;28;20273;-68
2023/08/02 01:20:07;;;;;;;8.95;3.92;;;16.10;99.90;;;;;;5012947;28;20038;-69
2023/08/02 01:22:33;;;;;;;10.88;4.03;;;16.10;99.90;;;;;;5013485;28;20092;-69
2023/08/02 01:24:59;;;;;;;9.10;4.00;;;16.10;99.90;;;;;;5013608;28;20042;-69
2023/08/02 01:27:34;;;;;;;10.65;3.63;;;16.20;99.90;;;;;;5012624;28;20049;-68
2023/08/02 01:30:01;;;;;;;12.10;3.95;;;16.20;99.90;;;;;;5008869;28;20401;-69
2023/08/02 01:32:27;;;;;;;11.93;4.13;;;16.10;99.90;;;;;;5013830;28;20124;-69
2023/08/02 01:34:54;;;;;;;10.93;3.83;;;16.10;99.90;;;;;;5012247;28;20479;-68
2023/08/02 01:37:20;;;;;;;11.82;3.97;;;16.10;99.90;;;;;;5007994;28;20029;-69
2023/08/02 01:39:45;;;;;;;9.60;4.05;;;16.20;99.90;;;;;;5013068;28;20412;-69
2023/08/02 01:42:11;;;;;;;12.90;4.13;;;16.10;99.90;;;;;;5013205;28;20044;-69
2023/08/02 01:44:37;;;;;;;11.80;4.15;;;16.20;99.90;;;;;;5007562;28;20081;-69
2023/08/02 01:47:03;;;;;;;9.90;4.43;;;16.20;99.90;;;;;;5011009;28;20069;-68
2023/08/02 01:49:28;;;;;;;8.85;3.88;;;16.10;99.90;;;;;;5012441;28;20493;-69
2023/08/02 01:51:54;;;;;;;9.10;3.92;;;16.20;99.90;;;;;;5012573;28;20045;-69
2023/08/02 01:54:20;;;;;;;12.15;3.90;;;16.20;99.90;;;;;;5008260;28;20104;-69
2023/08/02 01:56:45;;;;;;;12.30;4.28;;;16.20;99.90;;;;;;5002983;28;20137;-69
2023/08/02 01:59:12;;;;;;;12.95;4.10;;;16.20;99.90;;;;;;5010955;28;20423;-69
2023/08/02 02:01:38;;;;;;;11.10;4.07;;;16.20;99.90;;;;;;5011426;28;20483;-69
2023/08/02 02:04:04;;;;;;;11.57;4.15;;;16.20;99.90;;;;;;5009386;28;20092;-69
2023/08/02 02:06:29;;;;;;;10.77;4.50;;;16.20;99.90;;;;;;5006595;28;20042;-69
2023/08/02 02:08:55;;;;;;;12.77;4.22;;;16.20;99.90;;;;;;5002600;28;20057;-69
2023/08/02 02:11:21;;;;;;;12.40;5.07;;;16.10;99.90;;;;;;5008278;28;20064;-69
2023/08/02 02:13:46;;;;;;;15.82;4.78;;;16.10;99.90;;;;;;5011516;28;20041;-68
2023/08/02 02:16:12;;;;;;;11.10;4.35;;;16.10;99.90;;;;;;5007018;28;20095;-69
2023/08/02 02:18:37;;;;;;;16.23;4.97;;;16.10;99.90;;;;;;5012066;28;20037;-69
2023/08/02 02:21:03;;;;;;;12.80;4.65;;;16.20;99.90;;;;;;5012400;28;20037;-69
2023/08/02 02:23:29;;;;;;;14.48;4.78;;;16.10;99.90;;;;;;5012310;28;20116;-68
2023/08/02 02:25:54;;;;;;;12.30;4.60;;;16.10;99.90;;;;;;5004241;28;20045;-69
2023/08/02 02:28:20;;;;;;;18.25;5.72;;;16.10;99.90;;;;;;5010924;28;20049;-68
2023/08/02 02:30:46;;;;;;;13.07;4.75;;;16.10;99.90;;;;;;5005229;28;20038;-68
2023/08/02 02:33:11;;;;;;;11.43;4.60;;;16.10;99.90;;;;;;5010534;28;20100;-68
2023/08/02 02:35:37;;;;;;;12.90;4.53;;;16.10;99.90;;;;;;5012489;28;20064;-68
2023/08/02 02:38:03;;;;;;;16.38;5.15;;;16.00;99.90;;;;;;5011633;28;20487;-68
2023/08/02 02:40:28;;;;;;;14.73;4.68;;;16.00;99.90;;;;;;5010123;28;20096;-68
2023/08/02 02:42:54;;;;;;;12.73;4.72;;;16.00;99.90;;;;;;5010766;28;20038;-69
2023/08/02 02:45:19;;;;;;;9.13;4.45;;;16.00;99.90;;;;;;5011925;28;20038;-68
2023/08/02 02:47:45;;;;;;;11.70;4.63;;;15.90;99.90;;;;;;5011044;28;20113;-69
2023/08/02 02:50:11;;;;;;;12.93;4.43;;;15.90;99.90;;;;;;5009715;28;20065;-68
2023/08/02 02:52:36;;;;;;;12.88;5.05;;;15.90;99.90;;;;;;5012318;28;20034;-69
2023/08/02 02:55:02;;;;;;;11.90;5.10;;;15.90;99.90;;;;;;5011092;28;20052;-68
2023/08/02 02:57:28;;;;;;;11.23;4.88;;;15.80;99.90;;;;;;5011865;28;20066;-68
2023/08/02 02:59:53;;;;;;;15.20;5.38;;;15.80;99.90;;;;;;5001730;28;20040;-68
2023/08/02 03:02:19;;;;;;;14.40;5.10;;;15.80;99.90;;;;;;5011501;28;20033;-68
2023/08/02 03:04:45;;;;;;;13.35;5.18;;;15.70;99.90;;;;;;5012103;28;20057;-68
2023/08/02 03:07:10;;;;;;;12.82;4.70;;;15.70;99.90;;;;;;5011936;28;20066;-68
2023/08/02 03:09:36;;;;;;;11.25;4.88;;;15.70;99.90;;;;;;5008382;28;20038;-68
2023/08/02 03:12:01;;;;;;;12.98;5.53;;;15.70;99.90;;;;;;5011403;28;20111;-68
2023/08/02 03:14:27;;;;;;;15.13;5.40;;;15.70;99.90;;;;;;5011564;28;20408;-68
2023/08/02 03:16:53;;;;;;;12.98;5.25;;;15.70;99.90;;;;;;5010912;28;20034;-68
2023/08/02 03:19:19;;;;;;;10.43;4.85;;;15.70;99.90;;;;;;5009222;28;20415;-68
2023/08/02 03:21:44;;;;;;;11.32;5.55;;;15.60;99.90;;;;;;5011541;28;20061;-68
2023/08/02 03:24:10;;;;;;;15.88;5.50;;;15.60;99.90;;;;;;5011777;28;20049;-68
2023/08/02 03:26:35;;;;;;;13.15;4.95;;;15.60;99.90;;;;;;5011725;28;20038;-68
2023/08/02 03:29:01;;;;;;;13.73;5.60;;;15.60;99.90;;;;;;5010258;28;20042;-67
2023/08/02 03:31:27;;;;;;;11.45;5.03;;;15.60;99.90;;;;;;5012007;28;20077;-68
2023/08/02 03:33:53;;;;;;;14.07;4.53;;;15.60;99.90;;;;;;5011785;28;20041;-68
2023/08/02 03:36:18;;;;;;;16.13;6.18;;;15.50;99.90;;;;;;5011236;28;20061;-68
2023/08/02 03:38:44;;;;;;;12.25;5.63;;;15.50;99.90;;;;;;5009884;28;20088;-68
2023/08/02 03:41:09;;;;;;;16.90;5.65;;;15.50;99.90;;;;;;5010309;28;20037;-68
2023/08/02 03:43:35;;;;;;;14.57;5.35;;;15.50;99.90;;;;;;5011525;28;20088;-68
2023/08/02 03:46:02;;;;;;;12.80;5.93;;;15.50;99.90;;;;;;5009296;28;20038;-68
2023/08/02 03:48:28;;;;;;;13.75;5.20;;;15.50;99.90;;;;;;5011019;28;20030;-68
2023/08/02 03:50:56;;;;;;;11.85;5.68;;;15.50;99.90;;;;;;5004039;28;20038;-68
2023/08/02 03:53:21;;;;;;;13.60;5.65;;;15.50;99.90;;;;;;5011888;28;20049;-68
2023/08/02 03:55:47;;;;;;;11.80;4.97;;;15.50;99.90;;;;;;5011246;28;20038;-68
2023/08/02 03:58:13;;;;;;;11.82;5.82;;;15.40;99.90;;;;;;5010819;28;20574;-68
2023/08/02 04:00:38;;;;;;;9.60;5.40;;;15.40;99.90;;;;;;5009793;28;20034;-68
2023/08/02 04:03:04;;;;;;;11.77;5.75;;;15.40;99.90;;;;;;5015790;28;20033;-68
2023/08/02 04:05:30;;;;;;;13.10;5.15;;;15.40;99.90;;;;;;5012409;28;20041;-68
2023/08/02 04:07:55;;;;;;;9.45;5.07;;;15.40;99.90;;;;;;5014002;28;20042;-68
2023/08/02 04:10:21;;;;;;;13.93;5.22;;;15.30;99.90;;;;;;5009846;28;20056;-68
2023/08/02 04:12:49;;;;;;;12.68;5.40;;;15.40;99.90;;;;;;5014125;28;20116;-68
2023/08/02 04:15:15;;;;;;;14.63;5.80;;;15.30;99.90;;;;;;5006961;28;20125;-68
2023/08/02 04:17:41;;;;;;;20.70;6.15;;;15.30;99.90;;;;;;5015102;28;20555;-68
2023/08/02 04:20:07;;;;;;;10.73;5.70;;;15.30;99.90;;;;;;5014438;28;20030;-68
2023/08/02 04:22:32;;;;;;;9.82;5.13;;;15.30;99.90;;;;;;5009033;28;20076;-68
2023/08/02 04:24:58;;;;;;;11.30;5.45;;;15.30;99.90;;;;;;5011420;28;20078;-68
2023/08/02 04:27:24;;;;;;;13.73;6.05;;;15.30;99.90;;;;;;5014449;28;20070;-68
2023/08/02 04:29:49;;;;;;;12.45;5.15;;;15.30;99.90;;;;;;5013674;28;20407;-68
2023/08/02 04:32:15;;;;;;;13.48;5.55;;;15.30;99.90;;;;;;5012909;28;20050;-68
2023/08/02 04:34:40;;;;;;;10.40;5.15;;;15.30;99.90;;;;;;5013392;28;20042;-68
2023/08/02 04:37:06;;;;;;;11.63;5.25;;;15.30;99.90;;;;;;5014989;28;20037;-68
2023/08/02 04:39:32;;;;;;;10.88;5.70;;;15.30;99.90;;;;;;5014741;28;20399;-68
2023/08/02 04:42:00;;;;;;;11.98;5.50;;;15.40;99.90;;;;;;5012840;28;20100;-68
2023/08/02 04:44:26;;;;;;;12.75;5.63;;;15.40;99.90;;;;;;5012186;28;20049;-68
2023/08/02 04:46:52;;;;;;;12.82;5.57;;;15.40;99.90;;;;;;5013287;28;20048;-68
2023/08/02 04:49:18;;;;;;;14.13;5.45;;;15.40;99.90;;;;;;5014978;28;20042;-68
2023/08/02 04:51:43;;;;;;;11.77;5.57;;;15.40;99.90;;;;;;5011921;28;20045;-68
2023/08/02 04:54:09;;;;;;;11.63;5.50;;;15.40;99.90;;;;;;5009226;28;20076;-68
2023/08/02 04:56:35;;;;;;;15.13;6.47;;;15.40;99.90;;;;;;5002683;28;20042;-68
2023/08/02 04:59:00;;;;;;;15.38;6.07;;;15.30;99.90;;;;;;4996114;28;20073;-68
2023/08/02 05:01:26;;;;;;;12.68;5.93;;;15.40;99.90;;;;;;5007852;28;20572;-68
2023/08/02 05:03:53;;;;;;;12.48;5.55;;;15.40;99.90;;;;;;5009046;28;20050;-68
2023/08/02 05:06:18;;;;;;;9.35;5.75;;;15.30;99.90;;;;;;5009292;28;20125;-68
2023/08/02 05:08:44;;;;;;;12.13;6.38;;;15.30;99.90;;;;;;5010483;28;20113;-68
2023/08/02 05:11:10;;;;;;;12.00;5.85;;;15.40;99.90;;;;;;5009646;28;20065;-68
2023/08/02 05:13:35;;;;;;;12.27;5.25;;;15.40;99.90;;;;;;5009854;28;20518;-68
2023/08/02 05:16:01;;;;;;;14.30;5.88;;;15.50;99.90;;;;;;5012866;28;20034;-68
2023/08/02 05:18:27;;;;;;;10.05;5.47;;;15.50;99.90;;;;;;5009316;28;20045;-68
2023/08/02 05:20:53;;;;;;;10.90;5.35;;;15.50;99.90;;;;;;5010876;28;20038;-68
2023/08/02 05:23:19;;;;;;;10.38;5.20;;;15.50;99.90;;;;;;5011393;28;20080;-69
2023/08/02 05:25:45;;;;;;;10.32;5.10;;;15.50;99.90;;;;;;5011446;28;20037;-68
2023/08/02 05:28:10;;;;;;;12.45;5.38;;;15.50;99.90;;;;;;5009535;28;20045;-69
2023/08/02 05:30:37;;;;;;;11.60;5.43;;;15.50;99.90;;;;;;5011031;28;20041;-69
2023/08/02 05:33:03;;;;;;;8.88;5.40;;;15.50;99.90;;;;;;5010460;28;20049;-69
2023/08/02 05:35:29;;;;;;;10.18;5.47;;;15.50;99.90;;;;;;5011897;28;20080;-68
2023/08/02 05:37:56;;;;;;;11.57;5.25;;;15.60;99.90;;;;;;5009223;28;20048;-68
2023/08/02 05:40:22;;;;;;;9.02;5.95;;;15.60;99.90;;;;;;5011181;28;20034;-69
2023/08/02 05:42:49;;;;;;;11.88;5.20;;;15.60;99.90;;;;;;5005721;28;20096;-67
2023/08/02 05:45:14;;;;;;;11.00;5.60;;;15.60;99.90;;;;;;5002145;28;20036;-69
2023/08/02 05:47:40;;;;;;;10.57;4.93;;;15.60;99.90;;;;;;5011623;28;20030;-67
2023/08/02 05:50:07;;;;;;;9.38;5.10;;;15.70;99.90;;;;;;5011429;28;20562;-67
2023/08/02 05:52:32;;;;;;;9.95;4.93;;;15.80;99.90;;;;;;5007957;28;20065;-67
2023/08/02 05:54:58;;;;;;;10.75;4.88;;;15.80;99.90;;;;;;5008933;28;20080;-67
2023/08/02 05:57:24;;;;;;;9.80;5.20;;;15.80;99.90;;;;;;5010589;28;20123;-67
2023/08/02 05:59:50;;;;;;;9.10;5.22;;;15.90;99.90;;;;;;5012018;28;20029;-67
2023/08/02 06:02:16;;;;;;;12.80;5.00;;;15.90;99.90;;;;;;5029554;23;20033;-70
2023/08/02 06:04:44;;;;;;;10.60;4.13;;;16.00;99.90;;;;;;5021649;28;20098;-70
2023/08/02 06:07:09;;;;;;;8.80;4.45;;;16.10;99.90;;;;;;5022257;28;20049;-70
2023/08/02 06:09:35;;;;;;;15.02;4.75;;;16.00;99.90;;;;;;5025512;28;20045;-70
2023/08/02 06:12:01;;;;;;;13.98;4.88;;;16.10;99.90;;;;;;5021459;28;20091;-70
2023/08/02 06:14:27;;;;;;;11.55;5.00;;;16.10;99.90;;;;;;5025466;28;20045;-71
2023/08/02 06:16:52;;;;;;;8.98;4.90;;;16.10;99.90;;;;;;5022533;28;20046;-70
2023/08/02 06:19:18;;;;;;;10.07;4.60;;;16.20;99.90;;;;;;5023999;28;20060;-70
2023/08/02 06:21:43;;;;;;;12.88;4.40;;;16.20;99.90;;;;;;5022625;28;20438;-70
2023/08/02 06:24:09;;;;;;;8.35;4.32;;;16.30;99.90;;;;;;5024428;28;20037;-70
2023/08/02 06:26:35;;;;;;;10.40;4.15;;;16.30;99.90;;;;;;5022621;28;20041;-70
2023/08/02 06:29:00;;;;;;;11.38;4.22;;;16.40;99.90;;;;;;5024788;28;20080;-70
2023/08/02 06:31:26;;;;;;;11.73;4.10;;;16.40;99.90;;;;;;5025374;28;20046;-70
2023/08/02 06:33:52;;;;;;;11.07;4.28;;;16.40;99.90;;;;;;5024669;28;20041;-70
2023/08/02 06:36:19;;;;;;;9.85;4.75;;;16.40;99.90;;;;;;5029196;28;20036;-70
2023/08/02 06:38:47;;;;;;;10.35;4.63;;;16.40;99.90;;;;;;5017173;28;20037;-70
2023/08/02 06:41:13;;;;;;;11.45;4.53;;;16.30;99.90;;;;;;5022196;28;20037;-70
2023/08/02 06:43:39;;;;;;;9.75;4.45;;;16.40;99.90;;;;;;5023369;28;20041;-70
2023/08/02 06:46:05;;;;;;;9.15;3.95;;;16.40;99.90;;;;;;5022098;28;20038;-70
2023/08/02 06:48:31;;;;;;;10.85;4.13;;;16.30;99.90;;;;;;5024156;28;20056;-70
2023/08/02 06:50:57;;;;;;;8.23;4.07;;;16.40;99.90;;;;;;5022063;28;20037;-70
2023/08/02 06:53:22;;;;;;;9.85;4.53;;;16.40;99.90;;;;;;5023202;28;20437;-70
2023/08/02 06:55:48;;;;;;;11.57;4.32;;;16.40;99.90;;;;;;5025480;28;20503;-70
2023/08/02 06:58:14;;;;;;;8.48;4.13;;;16.40;99.90;;;;;;5023275;28;20030;-70
2023/08/02 07:00:41;;;;;;;9.85;4.07;;;16.30;99.90;;;;;;5021145;28;20125;-70
2023/08/02 07:03:06;;;;;;;9.18;4.43;;;16.30;99.90;;;;;;5023909;28;20116;-70
2023/08/02 07:05:34;;;;;;;11.00;4.18;;;16.30;99.90;;;;;;5025636;28;20463;-70
2023/08/02 07:08:01;;;;;;;11.80;4.70;;;16.30;99.90;;;;;;5025179;28;20065;-70
2023/08/02 07:10:27;;;;;;;10.27;4.35;;;16.30;99.90;;;;;;5023118;28;20095;-72
2023/08/02 07:12:54;;;;;;;7.20;3.92;;;16.30;99.90;;;;;;5028169;28;20037;-72
2023/08/02 07:15:20;;;;;;;8.68;4.40;;;16.30;99.90;;;;;;5023651;28;20041;-71
2023/08/02 07:17:47;;;;;;;10.35;4.55;;;16.30;99.90;;;;;;5028407;28;20034;-71
2023/08/02 07:20:14;;;;;;;9.18;4.50;;;16.40;99.90;;;;;;5020246;28;20033;-72
2023/08/02 07:22:42;;;;;;;8.45;4.15;;;16.40;99.90;;;;;;5024911;28;20037;-67
2023/08/02 07:25:09;;;;;;;10.50;3.90;;;16.40;99.90;;;;;;5019218;28;20041;-67
2023/08/02 07:27:35;;;;;;;9.65;4.03;;;16.50;99.90;;;;;;5021442;28;20095;-67
2023/08/02 07:30:02;;;;;;;8.50;4.05;;;16.50;99.90;;;;;;5020424;28;20124;-67
2023/08/02 07:32:29;;;;;;;7.50;3.90;;;16.40;99.90;;;;;;5024055;28;20549;-66
2023/08/02 07:34:54;;;;;;;9.60;3.80;;;16.40;99.90;;;;;;5024197;28;20041;-67
2023/08/02 07:37:20;;;;;;;9.38;3.78;;;16.40;99.90;;;;;;5025887;28;20033;-67
2023/08/02 07:39:46;;;;;;;9.10;4.07;;;16.40;99.90;;;;;;5029520;28;20044;-67
2023/08/02 07:42:11;;;;;;;12.20;4.32;;;16.40;99.90;;;;;;5029137;28;20041;-67
2023/08/02 07:44:37;;;;;;;11.07;4.53;;;16.30;99.90;;;;;;5020094;28;20045;-66
2023/08/02 07:47:06;;;;;;;9.15;4.88;;;16.30;99.90;;;;;;5024532;28;20033;-67
2023/08/02 07:49:32;;;;;;;7.93;3.58;;;16.20;99.90;;;;;;5026458;28;20078;-67
2023/08/02 07:51:59;;;;;;;11.93;3.80;;;16.30;99.90;;;;;;5025027;28;20139;-67
2023/08/02 07:54:24;;;;;;;8.15;3.78;;;16.20;99.90;;;;;;5024487;28;20124;-67
2023/08/02 07:56:50;;;;;;;7.88;3.45;;;16.10;99.90;;;;;;5026316;28;20116;-67
2023/08/02 07:59:16;;;;;;;7.75;3.40;;;16.10;99.90;;;;;;5029390;28;20029;-67
2023/08/02 08:01:42;;;;;;;9.07;3.63;;;16.10;99.90;;;;;;5029077;28;20056;-67
2023/08/02 08:04:08;;;;;;;10.82;4.20;;;16.10;99.90;;;;;;5028296;28;20049;-67
2023/08/02 08:06:34;;;;;;;7.20;3.65;;;16.00;99.90;;;;;;5030774;28;20052;-67
2023/08/02 08:09:00;;;;;;;10.13;4.15;;;16.00;99.90;;;;;;5027331;28;20045;-67
2023/08/02 08:11:29;;;;;;;11.05;4.18;;;16.00;99.90;;;;;;5027863;28;20033;-66
2023/08/02 08:13:56;;;;;;;9.23;3.85;;;16.00;99.90;;;;;;5030887;28;20041;-67
2023/08/02 08:16:22;;;;;;;11.20;4.00;;;16.00;99.90;;;;;;5027671;28;20041;-67
2023/08/02 08:18:48;;;;;;;10.38;4.35;;;15.90;99.90;;;;;;5022337;28;20128;-66
2023/08/02 08:21:13;;;;;;;9.00;4.03;;;16.00;99.90;;;;;;5020099;28;20116;-66
2023/08/02 08:23:39;;;;;;;10.35;3.65;;;16.00;99.90;;;;;;5025475;28;20128;-66
2023/08/02 08:26:09;;;;;;;9.35;3.92;;;16.00;99.90;;;;;;5027924;28;20099;-65
2023/08/02 08:28:35;;;;;;;9.40;4.35;;;16.00;99.90;;;;;;5027071;28;20038;-65
2023/08/02 08:31:04;;;;;;;10.25;4.50;;;16.00;99.90;;;;;;5026461;28;20095;-66
2023/08/02 08:33:31;;;;;;;10.05;4.43;;;16.00;99.90;;;;;;5010586;28;20038;-66
2023/08/02 08:35:57;;;;;;;12.35;4.80;;;15.90;99.90;;;;;;5002682;28;20051;-66
2023/08/02 08:38:23;;;;;;;15.80;4.90;;;16.00;99.90;;;;;;5003431;28;20045;-66
2023/08/02 08:40:55;;;;;;;11.80;5.25;;;16.00;99.90;;;;;;5006778;28;20034;-66
2023/08/02 08:43:26;;;;;;;8.68;5.10;;;16.10;99.90;;;;;;5022323;28;20041;-66
2023/08/02 08:45:52;;;;;;;;;;;16.10;99.90;;;;;;5031056;28;20041;-66
2023/08/02 08:48:18;;;;;;;13.68;4.75;;;16.10;99.90;;;;;;5025140;28;19924;-65
2023/08/02 08:50:46;;;;;;;10.90;4.40;;;16.20;99.90;;;;;;5027221;28;20116;-66
2023/08/02 08:53:18;;;;;;;11.70;4.70;;;16.20;99.90;;;;;;5030337;28;20048;-66
2023/08/02 08:55:49;;;;;;;11.07;4.50;;;16.20;99.90;;;;;;5030571;28;20046;-65
2023/08/02 08:58:15;;;;;;;;;;;16.30;99.90;;;;;;5028495;28;20041;-66
2023/08/02 09:00:42;;;;;;;9.30;4.65;;;16.20;99.90;;;;;;5031959;28;19921;-65
2023/08/02 09:03:12;;;;;;;9.13;4.60;;;16.20;99.90;;;;;;5026190;28;20116;-65
2023/08/02 09:05:39;;;;;;;10.90;5.00;;;16.20;99.90;;;;;;5032624;28;20034;-65
2023/08/02 09:08:05;;;;;;;12.60;5.15;;;16.20;99.90;;;;;;5033790;28;20048;-65
2023/08/02 09:10:32;;;;;;;9.98;4.72;;;16.20;99.90;;;;;;5032941;28;20112;-65
2023/08/02 09:12:58;;;;;;;8.30;4.40;;;16.20;99.90;;;;;;5032441;28;20045;-65
2023/08/02 09:15:24;;;;;;;9.15;4.97;;;16.20;99.90;;;;;;5030833;28;20184;-66
2023/08/02 09:17:54;;;;;;;12.88;5.07;;;16.20;99.90;;;;;;5033238;28;20037;-65
2023/08/02 09:20:22;;;;;;;8.90;5.22;;;16.30;99.90;;;;;;5031883;28;20025;-66
2023/08/02 09:22:48;;;;;;;13.05;5.63;;;16.40;99.90;;;;;;5032044;28;20077;-66
2023/08/02 09:25:21;;;;;;;14.13;5.70;;;16.40;99.90;;;;;;5030736;28;20075;-65
2023/08/02 09:27:48;;;;;;;10.77;5.90;;;16.40;99.90;;;;;;5033107;28;20098;-66
2023/08/02 09:30:28;;;;;;;12.27;5.30;;;16.40;99.90;;;;;;5028033;28;20037;-66
2023/08/02 09:32:59;;;;;;;8.55;6.15;;;16.40;99.90;;;;;;5028919;28;20487;-66
2023/08/02 09:35:26;;;;;;;8.57;5.30;;;16.50;99.90;;;;;;5028107;28;20406;-67
2023/08/02 09:37:51;;;;;;;8.05;5.70;;;16.40;99.90;;;;;;5026939;28;20037;-66
2023/08/02 09:40:17;;;;;;;9.00;5.85;;;16.40;99.90;;;;;;5022804;28;20052;-66
2023/08/02 09:42:43;;;;;;;9.05;5.18;;;16.50;99.90;;;;;;5032286;28;20044;-66
2023/08/02 09:45:09;;;;;;;6.70;4.80;;;16.40;99.90;;;;;;5025285;28;20048;-66
2023/08/02 09:47:35;;;;;;;6.15;4.55;;;16.40;99.90;;;;;;5045890;28;20041;-66
2023/08/02 09:50:06;;;;;;;8.27;5.03;;;16.40;99.90;;;;;;5031033;28;20111;-65
2023/08/02 09:52:33;;;;;;;8.75;4.97;;;16.40;99.90;;;;;;5031486;28;20049;-66
2023/08/02 09:54:58;;;;;;;10.80;5.18;;;16.30;99.90;;;;;;5026403;28;20138;-66
2023/08/02 09:57:26;;;;;;;10.45;4.82;;;16.40;99.90;;;;;;5030161;28;20045;-66
2023/08/02 09:59:54;;;;;;;6.18;4.35;;;16.40;99.90;;;;;;5027482;28;20092;-66
2023/08/02 10:02:26;;;;;;;7.43;4.28;;;16.40;99.90;;;;;;5024944;28;20079;-66
2023/08/02 10:04:58;;;;;;;8.25;4.10;;;16.50;99.90;;;;;;5031653;28;20396;-66
2023/08/02 10:07:32;;;;;;;5.18;3.60;;;16.50;99.90;;;;;;5032738;28;20046;-67
2023/08/02 10:10:05;;;;;;;4.95;3.53;;;16.50;99.90;;;;;;5032279;28;20045;-66
2023/08/02 10:12:35;;;;;;;5.53;3.75;;;16.50;99.90;;;;;;5028574;28;20041;-66
2023/08/02 10:15:02;;;;;;;6.05;3.83;;;16.50;99.90;;;;;;5030974;28;20120;-66
2023/08/02 10:17:29;;;;;;;6.47;3.03;;;16.50;99.90;;;;;;5032452;28;20029;-66
2023/08/02 10:19:57;;;;;;;4.15;2.83;;;16.50;99.90;;;;;;5032296;28;20124;-66
2023/08/02 10:22:24;;;;;;;3.67;2.58;;;16.50;99.90;;;;;;5030926;28;20034;-66
2023/08/02 10:24:51;;;;;;;4.80;3.00;;;16.50;99.90;;;;;;5027978;28;20041;-66
2023/08/02 10:27:19;;;;;;;4.82;2.95;;;16.60;99.90;;;;;;5025605;28;20865;-66
2023/08/02 10:29:47;;;;;;;3.83;2.67;;;16.60;99.90;;;;;;5025373;28;20496;-66
2023/08/02 10:32:14;;;;;;;4.32;2.58;;;16.60;99.90;;;;;;5023233;28;20391;-65
2023/08/02 10:34:40;;;;;;;3.45;2.53;;;16.70;99.90;;;;;;5025624;28;20484;-65
2023/08/02 10:37:06;;;;;;;2.42;2.15;;;16.70;99.90;;;;;;5025076;28;20041;-66
2023/08/02 10:39:47;;;;;;;3.97;2.50;;;16.70;99.90;;;;;;5023605;28;20041;-65
2023/08/02 10:42:17;;;;;;;;;;;16.70;99.90;;;;;;5023029;28;20063;-65
2023/08/02 10:44:55;;;;;;;3.53;2.08;;;16.70;99.90;;;;;;5021825;28;20355;-65
2023/08/02 10:47:34;;;;;;;4.32;2.45;;;16.60;99.90;;;;;;5024840;28;20045;-66
2023/08/02 10:50:01;;;;;;;3.70;2.20;;;16.70;99.90;;;;;;5026137;28;20037;-65
2023/08/02 10:52:33;;;;;;;3.50;2.20;;;16.70;99.90;;;;;;5023105;28;20046;-65
2023/08/02 10:55:16;;;;;;;2.63;1.95;;;16.70;99.90;;;;;;5026111;28;20483;-65
2023/08/02 10:57:57;;;;;;;3.53;1.95;;;16.70;99.90;;;;;;5026125;28;20034;-65
2023/08/02 11:00:29;;;;;;;4.25;1.92;;;16.70;99.90;;;;;;5028145;28;20057;-66
2023/08/02 11:02:55;;;;;;;2.70;1.90;;;16.70;99.90;;;;;;5024575;28;20140;-66
2023/08/02 11:05:39;;;;;;;2.58;2.03;;;16.80;99.90;;;;;;5026373;28;20495;-66
2023/08/02 11:08:07;;;;;;;2.20;1.80;;;16.90;99.90;;;;;;5023957;28;20042;-65
2023/08/02 11:10:45;;;;;;;3.08;1.55;;;16.90;99.90;;;;;;5022618;28;20044;-66
2023/08/02 11:13:10;;;;;;;2.25;1.55;;;16.90;99.90;;;;;;5023896;28;20041;-66
2023/08/02 11:15:36;;;;;;;2.65;1.60;;;16.90;99.90;;;;;;5025243;28;20040;-65
2023/08/02 11:18:03;;;;;;;2.67;1.95;;;16.90;99.90;;;;;;5024421;28;20043;-66
2023/08/02 11:20:32;;;;;;;2.55;1.90;;;16.90;99.90;;;;;;5030971;28;20390;-66
2023/08/02 11:22:58;;;;;;;3.85;2.42;;;16.90;99.90;;;;;;5028728;28;20045;-66
2023/08/02 11:25:24;;;;;;;2.67;2.35;;;16.90;99.90;;;;;;5031597;28;20033;-66
2023/08/02 11:28:09;;;;;;;2.88;2.58;;;17.00;99.90;;;;;;5031496;28;20042;-66
2023/08/02 11:30:35;;;;;;;3.00;2.67;;;17.00;99.90;;;;;;5031323;28;20115;-66
2023/08/02 11:33:01;;;;;;;3.65;2.67;;;17.10;99.90;;;;;;5027716;28;20033;-66
2023/08/02 11:35:26;;;;;;;2.67;2.30;;;17.30;99.90;;;;;;5029850;28;20042;-66
2023/08/02 11:37:52;;;;;;;3.53;2.60;;;17.40;99.90;;;;;;5030986;28;20038;-66
2023/08/02 11:40:18;;;;;;;3.05;2.38;;;17.50;99.90;;;;;;5031603;28;20061;-63
2023/08/02 11:42:50;;;;;;;2.45;2.25;;;17.70;99.90;;;;;;5026312;28;20450;-63
2023/08/02 11:45:30;;;;;;;2.60;2.40;;;17.80;99.90;;;;;;5023346;28;20064;-63
2023/08/02 11:47:56;;;;;;;2.50;2.30;;;17.90;99.90;;;;;;5031448;28;20077;-63
2023/08/02 11:50:26;;;;;;;3.15;2.83;;;18.00;99.90;;;;;;5031727;28;20065;-63
2023/08/02 11:52:52;;;;;;;2.47;2.20;;;18.10;99.90;;;;;;5026083;28;20121;-63
2023/08/02 11:55:20;;;;;;;2.80;2.00;;;18.10;99.90;;;;;;5031201;28;20034;-63
2023/08/02 11:57:47;;;;;;;2.50;2.25;;;18.10;99.90;;;;;;5031808;28;20041;-63
2023/08/02 12:00:13;;;;;;;2.90;2.40;;;18.20;99.90;;;;;;5031292;28;20092;-63
2023/08/02 12:02:39;;;;;;;3.05;2.38;;;18.30;99.90;;;;;;5041948;22;20107;-63
2023/08/02 12:05:06;;;;;;;2.58;2.38;;;18.40;99.90;;;;;;5030621;28;20033;-63
2023/08/02 12:07:34;;;;;;;3.13;2.40;;;18.50;99.90;;;;;;5031063;28;20045;-64
2023/08/02 12:10:03;;;;;;;2.90;2.70;;;18.70;99.90;;;;;;5031290;28;20044;-63
2023/08/02 12:12:34;;;;;;;2.88;2.63;;;18.90;99.90;;;;;;5026284;28;20076;-63
2023/08/02 12:15:10;;;;;;;3.00;2.80;;;19.20;99.90;;;;;;5030000;28;20046;-64
2023/08/02 12:17:35;;;;;;;3.40;3.08;;;19.40;99.90;;;;;;5030604;28;20033;-64
2023/08/02 12:20:01;;;;;;;4.07;3.10;;;19.60;99.90;;;;;;5031452;28;20113;-64
2023/08/02 12:22:27;;;;;;;3.35;3.05;;;19.70;99.90;;;;;;5030182;28;20040;-64
2023/08/02 12:25:06;;;;;;;4.45;4.05;;;19.80;99.90;;;;;;5033139;28;20108;-64
2023/08/02 12:27:31;;;;;;;5.38;3.70;;;19.90;99.90;;;;;;5033318;28;20513;-64
2023/08/02 12:30:11;;;;;;;3.88;3.50;;;20.00;99.90;;;;;;5033846;28;20041;-65
2023/08/02 12:32:37;;;;;;;4.70;4.07;;;20.00;99.90;;;;;;5027563;28;20041;-65
2023/08/02 12:35:07;;;;;;;3.95;3.55;;;20.00;99.90;;;;;;5034265;28;20049;-64
2023/08/02 12:37:33;;;;;;;4.30;3.90;;;20.00;99.90;;;;;;5034512;28;20050;-64
2023/08/02 12:39:59;;;;;;;4.10;3.70;;;19.90;99.90;;;;;;5033551;28;20072;-64
2023/08/02 12:42:25;;;;;;;6.55;4.18;;;19.80;99.90;;;;;;5031959;28;20065;-64